createdAt,value
2022-12-23T00:01:45.899Z,24.75
2022-12-23T00:04:12.466Z,19.40
2022-12-23T00:06:39.051Z,18.00
2022-12-23T00:09:05.531Z,16.10
2022-12-23T00:11:31.999Z,18.42
2022-12-23T00:14:21.670Z,24.33
2022-12-23T00:16:50.197Z,19.77
2022-12-23T00:19:16.891Z,25.05
2022-12-23T00:21:43.327Z,16.87
2022-12-23T00:24:11.379Z,17.73
2022-12-23T00:26:37.859Z,18.55
2022-12-23T00:29:04.291Z,23.88
2022-12-23T00:31:30.910Z,18.45
2022-12-23T00:33:57.432Z,20.23
2022-12-23T00:36:29.016Z,20.52
2022-12-23T00:39:20.040Z,15.27
2022-12-23T00:42:05.242Z,14.70
2022-12-23T00:44:32.446Z,11.18
2022-12-23T00:46:58.953Z,16.20
2022-12-23T00:49:43.756Z,16.15
2022-12-23T00:52:13.465Z,15.55
2022-12-23T00:54:40.272Z,28.80
2022-12-23T00:57:06.754Z,23.13
2022-12-23T00:59:33.553Z,15.20
2022-12-23T01:02:18.919Z,17.02
2022-12-23T01:05:04.156Z,17.90
2022-12-23T01:07:30.593Z,14.85
2022-12-23T01:09:57.061Z,15.63
2022-12-23T01:12:23.502Z,11.77
2022-12-23T01:14:49.978Z,15.45
2022-12-23T01:17:16.491Z,15.75
2022-12-23T01:19:43.187Z,15.00
2022-12-23T01:22:09.836Z,12.48
2022-12-23T01:24:36.400Z,18.40
2022-12-23T01:27:02.922Z,11.45
2022-12-23T01:29:30.096Z,13.80
2022-12-23T01:31:56.827Z,10.73
2022-12-23T01:34:23.282Z,12.75
2022-12-23T01:36:49.896Z,15.10
2022-12-23T01:39:16.397Z,16.17
2022-12-23T01:42:21.281Z,15.85
2022-12-23T01:44:59.187Z,14.98
2022-12-23T01:47:40.535Z,17.75
2022-12-23T01:50:13.040Z,19.53
2022-12-23T01:52:47.913Z,17.45
2022-12-23T01:55:19.288Z,17.70
2022-12-23T01:57:47.119Z,13.13
2022-12-23T02:00:33.206Z,16.73
2022-12-23T02:03:18.881Z,17.57
2022-12-23T02:05:46.977Z,16.25
2022-12-23T02:08:34.512Z,20.05
2022-12-23T02:11:27.842Z,10.15
2022-12-23T02:14:45.565Z,12.82
2022-12-23T02:17:39.326Z,13.40
2022-12-23T02:20:17.374Z,14.10
2022-12-23T02:23:15.421Z,13.00
2022-12-23T02:25:55.386Z,12.02
2022-12-23T02:28:59.534Z,12.10
2022-12-23T02:31:49.319Z,9.50
2022-12-23T02:34:40.400Z,14.02
2022-12-23T02:37:18.071Z,12.05
2022-12-23T02:40:02.996Z,11.13
2022-12-23T02:42:39.719Z,14.38
2022-12-23T02:45:20.137Z,12.20
2022-12-23T02:47:52.566Z,9.95
2022-12-23T02:50:28.767Z,12.02
2022-12-23T02:53:00.427Z,12.23
2022-12-23T02:55:32.322Z,17.67
2022-12-23T02:58:03.110Z,11.70
2022-12-23T03:00:30.710Z,12.35
2022-12-23T03:02:57.361Z,12.15
2022-12-23T03:05:26.455Z,13.07
2022-12-23T03:07:55.027Z,11.70
2022-12-23T03:10:46.387Z,13.20
2022-12-23T03:13:12.935Z,11.82
2022-12-23T03:16:12.116Z,11.35
2022-12-23T03:19:03.566Z,12.57
2022-12-23T03:21:39.770Z,11.77
2022-12-23T03:24:18.038Z,10.17
2022-12-23T03:26:57.660Z,13.50
2022-12-23T03:29:44.025Z,11.55
2022-12-23T03:32:13.334Z,14.07
2022-12-23T03:34:44.421Z,16.85
2022-12-23T03:37:14.369Z,13.57
2022-12-23T03:39:47.247Z,12.88
2022-12-23T03:42:29.081Z,12.90
2022-12-23T03:45:36.213Z,11.32
2022-12-23T03:47:50.806Z,14.55
2022-12-23T03:50:20.301Z,17.03
2022-12-23T03:52:58.114Z,9.18
2022-12-23T03:55:33.530Z,12.77
2022-12-23T03:58:17.991Z,10.00
2022-12-23T04:00:50.677Z,10.52
2022-12-23T04:03:22.968Z,13.63
2022-12-23T04:05:59.779Z,11.40
2022-12-23T04:08:31.066Z,14.40
2022-12-23T04:10:58.550Z,12.43
2022-12-23T04:13:27.316Z,14.88
2022-12-23T04:15:54.264Z,12.20
2022-12-23T04:18:20.801Z,9.15
2022-12-23T04:20:47.234Z,11.23
2022-12-23T04:23:13.644Z,10.68
2022-12-23T04:25:40.125Z,12.38
2022-12-23T04:28:06.723Z,13.00
2022-12-23T04:30:34.581Z,9.38
2022-12-23T04:33:01.994Z,11.05
2022-12-23T04:35:29.086Z,7.75
2022-12-23T04:37:55.523Z,9.27
2022-12-23T04:40:22.031Z,10.30
2022-12-23T04:42:48.437Z,11.77
2022-12-23T04:45:15.134Z,11.80
2022-12-23T04:47:41.598Z,11.90
2022-12-23T04:50:13.173Z,11.45
2022-12-23T04:52:39.569Z,7.20
2022-12-23T04:55:06.604Z,8.43
2022-12-23T04:57:33.144Z,9.25
2022-12-23T04:59:59.611Z,14.45
2022-12-23T05:02:26.185Z,15.38
2022-12-23T05:04:52.791Z,8.50
2022-12-23T05:07:19.467Z,9.65
2022-12-23T05:09:45.957Z,9.02
2022-12-23T05:12:12.596Z,9.00
2022-12-23T05:14:39.155Z,10.40
2022-12-23T05:17:07.940Z,8.43
2022-12-23T05:19:34.693Z,10.25
2022-12-23T05:22:01.231Z,11.88
2022-12-23T05:24:27.667Z,10.45
2022-12-23T05:26:59.653Z,11.07
2022-12-23T05:29:27.090Z,19.90
2022-12-23T05:31:53.829Z,7.13
2022-12-23T05:34:20.821Z,8.45
2022-12-23T05:36:47.320Z,14.73
2022-12-23T05:39:13.862Z,18.75
2022-12-23T05:41:40.550Z,18.00
2022-12-23T05:44:07.080Z,13.00
2022-12-23T05:46:33.840Z,26.55
2022-12-23T05:49:00.536Z,16.55
2022-12-23T05:51:27.175Z,13.93
2022-12-23T05:53:53.656Z,18.20
2022-12-23T05:56:20.156Z,19.67
2022-12-23T05:58:46.601Z,13.80
2022-12-23T06:01:14.287Z,16.80
2022-12-23T06:03:40.921Z,22.95
2022-12-23T06:06:07.607Z,10.00
2022-12-23T06:08:34.115Z,8.05
2022-12-23T06:11:00.574Z,13.77
2022-12-23T06:13:27.110Z,20.40
2022-12-23T06:15:53.508Z,7.38
2022-12-23T06:18:19.958Z,11.87
2022-12-23T06:20:47.754Z,19.48
2022-12-23T06:23:14.280Z,8.80
2022-12-23T06:25:40.851Z,7.93
2022-12-23T06:28:07.973Z,13.68
2022-12-23T06:30:35.104Z,7.77
2022-12-23T06:33:01.952Z,20.35
2022-12-23T06:35:28.470Z,13.70
2022-12-23T06:37:54.965Z,11.95
2022-12-23T06:40:21.509Z,13.43
2022-12-23T06:42:47.962Z,13.67
2022-12-23T06:45:14.690Z,13.57
2022-12-23T06:47:41.207Z,19.67
2022-12-23T06:50:09.079Z,13.23
2022-12-23T06:52:35.563Z,10.30
2022-12-23T06:55:01.946Z,23.70
2022-12-23T06:57:28.405Z,18.35
2022-12-23T06:59:54.961Z,19.88
2022-12-23T07:02:21.452Z,12.73
2022-12-23T07:04:48.017Z,14.43
2022-12-23T07:07:14.485Z,10.60
2022-12-23T07:09:40.980Z,11.60
2022-12-23T07:12:07.754Z,15.00
2022-12-23T07:14:34.261Z,9.30
2022-12-23T07:17:01.076Z,13.70
2022-12-23T07:19:27.580Z,9.07
2022-12-23T07:21:54.313Z,12.10
2022-12-23T07:24:21.066Z,9.30
2022-12-23T07:26:47.536Z,11.63
2022-12-23T07:29:14.111Z,12.90
2022-12-23T07:31:41.210Z,9.43
2022-12-23T07:34:08.510Z,15.35
2022-12-23T07:36:35.298Z,12.57
2022-12-23T07:39:01.768Z,11.20
2022-12-23T07:41:28.292Z,11.00
2022-12-23T07:43:54.771Z,32.20
2022-12-23T07:46:21.390Z,12.90
2022-12-23T07:48:47.965Z,14.70
2022-12-23T07:51:14.540Z,11.65
2022-12-23T07:53:41.089Z,13.05
2022-12-23T07:56:07.971Z,11.57
2022-12-23T07:58:34.528Z,10.10
2022-12-23T08:01:03.171Z,12.23
2022-12-23T08:03:29.916Z,13.25
2022-12-23T08:06:08.420Z,17.42
2022-12-23T08:08:35.784Z,43.40
2022-12-23T08:11:04.582Z,35.67
2022-12-23T08:13:33.087Z,23.00
2022-12-23T08:16:01.211Z,19.33
2022-12-23T08:18:30.567Z,18.42
2022-12-23T08:21:19.334Z,21.10
2022-12-23T08:23:47.379Z,37.17
2022-12-23T08:26:17.645Z,35.83
2022-12-23T08:28:44.989Z,18.13
2022-12-23T08:31:21.493Z,22.67
2022-12-23T08:33:50.561Z,28.33
2022-12-23T08:36:23.023Z,49.20
2022-12-23T08:38:52.177Z,26.23
2022-12-23T08:41:23.093Z,30.27
2022-12-23T08:43:49.954Z,37.85
2022-12-23T08:46:16.583Z,39.47
2022-12-23T08:48:49.403Z,58.45
2022-12-23T08:51:17.650Z,28.65
2022-12-23T08:53:44.802Z,24.33
2022-12-23T08:56:14.721Z,33.40
2022-12-23T08:58:43.554Z,25.17
2022-12-23T09:01:12.827Z,25.42
2022-12-23T09:03:40.443Z,35.53
2022-12-23T09:06:10.552Z,42.08
2022-12-23T09:08:37.700Z,29.17
2022-12-23T09:11:04.634Z,29.73
2022-12-23T09:13:35.672Z,36.00
2022-12-23T09:16:03.542Z,34.50
2022-12-23T09:18:30.031Z,33.28
2022-12-23T09:21:01.491Z,59.05
2022-12-23T09:23:28.272Z,32.47
2022-12-23T09:25:55.384Z,53.05
2022-12-23T09:28:22.212Z,27.48
2022-12-23T09:30:48.784Z,38.30
2022-12-23T09:33:15.561Z,36.80
2022-12-23T09:35:42.017Z,41.80
2022-12-23T09:38:08.626Z,33.92
2022-12-23T09:40:37.472Z,47.63
2022-12-23T09:43:14.548Z,39.45
2022-12-23T09:46:06.221Z,33.92
2022-12-23T09:48:38.910Z,47.10
2022-12-23T09:51:06.179Z,48.65
2022-12-23T09:54:03.829Z,63.03
2022-12-23T09:57:02.677Z,73.45
2022-12-23T09:59:44.440Z,64.55
2022-12-23T10:02:31.696Z,45.00
2022-12-23T10:05:32.451Z,51.20
2022-12-23T10:08:04.090Z,54.72
2022-12-23T10:10:42.871Z,52.10
2022-12-23T10:13:38.967Z,75.70
2022-12-23T10:16:13.001Z,50.67
2022-12-23T10:19:02.601Z,42.50
2022-12-23T10:21:34.700Z,50.67
2022-12-23T10:24:12.531Z,66.03
2022-12-23T10:26:46.929Z,55.67
2022-12-23T10:29:19.901Z,37.07
2022-12-23T10:32:15.126Z,60.80
2022-12-23T10:35:31.562Z,39.05
2022-12-23T10:38:11.144Z,26.02
2022-12-23T10:41:12.048Z,25.88
2022-12-23T10:43:51.646Z,30.57
2022-12-23T10:46:18.580Z,39.28
2022-12-23T10:49:05.943Z,35.53
2022-12-23T10:51:41.877Z,35.58
2022-12-23T10:54:17.080Z,35.80
2022-12-23T10:56:44.533Z,29.60
2022-12-23T10:59:15.336Z,24.10
2022-12-23T11:01:47.663Z,31.05
2022-12-23T11:04:17.964Z,26.13
2022-12-23T11:06:48.409Z,31.88
2022-12-23T11:09:19.180Z,40.90
2022-12-23T11:12:01.346Z,28.35
2022-12-23T11:14:50.663Z,27.83
2022-12-23T11:17:24.699Z,25.40
2022-12-23T11:20:14.174Z,39.70
2022-12-23T11:22:52.167Z,30.50
2022-12-23T11:25:27.552Z,39.50
2022-12-23T11:28:19.538Z,31.02
2022-12-23T11:30:50.384Z,27.38
2022-12-23T11:33:45.535Z,32.70
2022-12-23T11:36:25.028Z,37.90
2022-12-23T11:39:05.012Z,29.73
2022-12-23T11:41:38.524Z,32.90
2022-12-23T11:44:28.895Z,33.50
2022-12-23T11:46:55.570Z,34.65
2022-12-23T11:49:26.918Z,32.20
2022-12-23T11:52:11.943Z,41.83
2022-12-23T11:54:39.530Z,47.15
2022-12-23T11:57:15.547Z,50.15
2022-12-23T11:59:51.522Z,101.35
2022-12-23T12:02:39.773Z,40.77
2022-12-23T12:05:15.335Z,44.20
2022-12-23T12:07:44.055Z,81.60
2022-12-23T12:10:19.400Z,50.05
2022-12-23T12:12:52.767Z,52.13
2022-12-23T12:15:41.152Z,88.73
2022-12-23T12:18:13.230Z,62.72
2022-12-23T12:20:45.482Z,49.22
2022-12-23T12:23:21.193Z,36.60
2022-12-23T12:25:53.759Z,46.80
2022-12-23T12:28:34.510Z,44.40
2022-12-23T12:31:35.472Z,42.17
2022-12-23T12:34:53.404Z,37.45
2022-12-23T12:37:41.049Z,32.60
2022-12-23T12:40:16.777Z,37.35
2022-12-23T12:42:52.563Z,37.97
2022-12-23T12:45:38.072Z,33.78
2022-12-23T12:48:26.858Z,76.53
2022-12-23T12:51:12.544Z,47.72
2022-12-23T12:54:05.188Z,37.03
2022-12-23T12:56:40.753Z,35.97
2022-12-23T12:59:16.864Z,30.02
2022-12-23T13:02:28.389Z,37.20
2022-12-23T13:05:20.286Z,46.72
2022-12-23T13:08:04.980Z,53.35
2022-12-23T13:11:02.937Z,36.90
2022-12-23T13:13:39.348Z,35.95
2022-12-23T13:16:25.404Z,35.15
2022-12-23T13:19:03.824Z,40.03
2022-12-23T13:21:48.425Z,34.53
2022-12-23T13:24:28.083Z,27.33
2022-12-23T13:27:18.865Z,29.65
2022-12-23T13:29:58.071Z,29.10
2022-12-23T13:32:45.274Z,29.75
2022-12-23T13:35:22.819Z,25.95
2022-12-23T13:38:01.496Z,23.70
2022-12-23T13:40:49.223Z,31.75
2022-12-23T13:43:20.338Z,29.20
2022-12-23T13:45:49.003Z,22.67
2022-12-23T13:48:38.152Z,27.77
2022-12-23T13:51:20.326Z,23.90
2022-12-23T13:54:04.952Z,21.63
2022-12-23T13:56:59.510Z,25.98
2022-12-23T13:59:39.375Z,23.35
2022-12-23T14:02:37.622Z,21.17
2022-12-23T14:05:10.479Z,21.50
2022-12-23T14:07:44.878Z,25.15
2022-12-23T14:10:19.965Z,23.52
2022-12-23T14:12:47.698Z,24.52
2022-12-23T14:15:38.720Z,27.83
2022-12-23T14:18:40.332Z,21.87
2022-12-23T14:21:19.925Z,22.13
2022-12-23T14:24:10.910Z,30.20
2022-12-23T14:26:51.904Z,26.48
2022-12-23T14:29:59.889Z,20.67
2022-12-23T14:32:40.946Z,27.50
2022-12-23T14:35:46.654Z,26.38
2022-12-23T14:38:15.656Z,18.58
2022-12-23T14:40:42.092Z,19.60
2022-12-23T14:43:27.334Z,25.98
2022-12-23T14:45:54.937Z,22.30
2022-12-23T14:48:37.167Z,22.60
2022-12-23T14:51:09.416Z,25.95
2022-12-23T14:53:57.087Z,21.20
2022-12-23T14:56:38.816Z,23.73
2022-12-23T14:59:10.769Z,18.27
2022-12-23T15:01:42.042Z,21.92
2022-12-23T15:04:20.637Z,17.63
2022-12-23T15:06:50.997Z,18.45
2022-12-23T15:09:30.895Z,17.10
2022-12-23T15:12:05.986Z,20.30
2022-12-23T15:14:46.418Z,21.17
2022-12-23T15:17:29.885Z,19.77
2022-12-23T15:20:18.513Z,25.35
2022-12-23T15:22:46.742Z,21.85
2022-12-23T15:25:25.352Z,18.57
2022-12-23T15:28:00.840Z,19.08
2022-12-23T15:30:36.501Z,16.15
2022-12-23T15:33:27.786Z,19.92
2022-12-23T15:35:53.704Z,18.02
2022-12-23T15:38:22.432Z,16.80
2022-12-23T15:41:22.485Z,18.05
2022-12-23T15:43:49.195Z,18.73
2022-12-23T15:46:28.524Z,14.10
2022-12-23T15:48:56.747Z,28.25
2022-12-23T15:51:49.958Z,18.90
2022-12-23T15:54:31.119Z,17.70
2022-12-23T15:57:00.508Z,15.05
2022-12-23T15:59:31.719Z,16.52
2022-12-23T16:01:58.999Z,19.20
2022-12-23T16:04:29.249Z,20.67
2022-12-23T16:06:56.602Z,17.20
2022-12-23T16:09:31.550Z,17.48
2022-12-23T16:12:20.623Z,14.15
2022-12-23T16:15:22.783Z,20.42
2022-12-23T16:17:49.319Z,15.43
2022-12-23T16:20:15.678Z,19.02
2022-12-23T16:22:44.582Z,17.23
2022-12-23T16:25:25.653Z,19.48
2022-12-23T16:28:03.551Z,16.67
2022-12-23T16:30:36.309Z,13.60
2022-12-23T16:33:06.806Z,17.13
2022-12-23T16:35:39.208Z,16.48
2022-12-23T16:38:16.596Z,14.18
2022-12-23T16:40:44.804Z,18.67
2022-12-23T16:43:11.368Z,15.63
2022-12-23T16:45:38.557Z,12.82
2022-12-23T16:48:20.414Z,16.10
2022-12-23T16:50:47.565Z,16.10
2022-12-23T16:53:14.446Z,16.83
2022-12-23T16:55:48.222Z,13.27
2022-12-23T16:58:17.870Z,19.13
2022-12-23T17:00:44.728Z,18.55
2022-12-23T17:03:16.380Z,15.52
2022-12-23T17:05:44.130Z,25.52
2022-12-23T17:08:10.553Z,14.40
2022-12-23T17:10:38.742Z,25.67
2022-12-23T17:13:05.361Z,19.38
2022-12-23T17:15:32.385Z,20.63
2022-12-23T17:17:58.905Z,18.38
2022-12-23T17:20:25.446Z,78.63
2022-12-23T17:22:54.983Z,21.90
2022-12-23T17:25:26.361Z,31.05
2022-12-23T17:27:53.651Z,19.00
2022-12-23T17:30:25.283Z,14.45
2022-12-23T17:32:56.514Z,16.27
2022-12-23T17:35:24.806Z,16.88
2022-12-23T17:37:51.884Z,18.80
2022-12-23T17:40:19.647Z,36.67
2022-12-23T17:42:47.336Z,16.73
2022-12-23T17:45:26.365Z,15.57
2022-12-23T17:47:52.933Z,15.38
2022-12-23T17:50:20.289Z,18.13
2022-12-23T17:52:47.049Z,17.50
2022-12-23T17:55:22.530Z,19.35
2022-12-23T17:57:49.031Z,17.70
2022-12-23T18:00:22.672Z,18.48
2022-12-23T18:02:54.568Z,17.23
2022-12-23T18:05:24.106Z,17.17
2022-12-23T18:07:51.825Z,17.60
2022-12-23T18:10:22.555Z,20.00
2022-12-23T18:12:55.773Z,21.75
2022-12-23T18:15:30.094Z,20.05
2022-12-23T18:17:56.593Z,15.30
2022-12-23T18:20:24.225Z,15.35
2022-12-23T18:22:52.772Z,21.73
2022-12-23T18:25:27.060Z,17.70
2022-12-23T18:27:54.532Z,19.65
2022-12-23T18:30:21.827Z,26.55
2022-12-23T18:32:49.017Z,22.63
2022-12-23T18:35:44.058Z,16.77
2022-12-23T18:38:11.095Z,32.08
2022-12-23T18:40:38.757Z,29.75
2022-12-23T18:43:05.599Z,30.58
2022-12-23T18:45:41.949Z,41.15
2022-12-23T18:48:09.447Z,36.37
2022-12-23T18:50:38.636Z,40.78
2022-12-23T18:53:06.325Z,38.35
2022-12-23T18:55:33.597Z,39.08
2022-12-23T18:58:00.954Z,31.98
2022-12-23T19:00:30.722Z,37.60
2022-12-23T19:02:57.608Z,28.50
2022-12-23T19:05:27.305Z,37.42
2022-12-23T19:07:56.102Z,37.22
2022-12-23T19:10:36.121Z,39.75
2022-12-23T19:13:02.581Z,36.57
2022-12-23T19:15:29.222Z,37.05
2022-12-23T19:17:55.717Z,38.28
2022-12-23T19:20:22.232Z,28.65
2022-12-23T19:22:49.255Z,38.55
2022-12-23T19:25:18.352Z,44.33
2022-12-23T19:27:46.010Z,43.67
2022-12-23T19:30:15.856Z,38.92
2022-12-23T19:32:42.696Z,33.03
2022-12-23T19:35:12.472Z,27.63
2022-12-23T19:37:39.076Z,41.27
2022-12-23T19:40:06.829Z,41.70
2022-12-23T19:42:36.230Z,38.15
2022-12-23T19:45:02.808Z,28.67
2022-12-23T19:47:29.259Z,33.45
2022-12-23T19:49:55.896Z,37.97
2022-12-23T19:52:22.417Z,48.47
2022-12-23T19:54:48.924Z,34.67
2022-12-23T19:57:15.410Z,30.77
2022-12-23T19:59:41.949Z,45.95
2022-12-23T20:02:14.033Z,37.53
2022-12-23T20:04:40.836Z,32.03
2022-12-23T20:07:07.826Z,28.02
2022-12-23T20:09:34.310Z,30.65
2022-12-23T20:12:01.828Z,45.58
2022-12-23T20:14:32.312Z,41.10
2022-12-23T20:17:00.890Z,42.15
2022-12-23T20:19:27.715Z,40.83
2022-12-23T20:21:54.169Z,29.80
2022-12-23T20:24:20.672Z,29.70
2022-12-23T20:26:47.609Z,37.80
2022-12-23T20:29:14.353Z,35.35
2022-12-23T20:31:41.279Z,41.22
2022-12-23T20:34:11.839Z,42.08
2022-12-23T20:36:38.476Z,42.38
2022-12-23T20:39:05.877Z,39.67
2022-12-23T20:41:32.840Z,29.63
2022-12-23T20:46:46.093Z,37.75
2022-12-23T20:49:12.811Z,32.65
2022-12-23T20:51:39.261Z,18.13
2022-12-23T20:54:05.849Z,24.08
2022-12-23T20:56:32.363Z,25.90
2022-12-23T20:58:59.998Z,21.30
2022-12-23T21:01:29.880Z,19.63
2022-12-23T21:03:58.335Z,16.17
2022-12-23T21:06:25.697Z,21.70
2022-12-23T21:08:52.654Z,24.95
2022-12-23T21:11:19.375Z,13.57
2022-12-23T21:13:50.135Z,19.77
2022-12-23T21:16:17.291Z,21.40
2022-12-23T21:18:46.731Z,19.88
2022-12-23T21:21:13.346Z,15.05
2022-12-23T21:23:41.853Z,14.35
2022-12-23T21:26:11.950Z,17.92
2022-12-23T21:28:39.940Z,16.00
2022-12-23T21:31:07.390Z,23.30
2022-12-23T21:33:39.074Z,19.38
2022-12-23T21:36:06.719Z,20.00
2022-12-23T21:38:39.849Z,18.05
2022-12-23T21:41:09.409Z,19.13
2022-12-23T21:43:36.332Z,11.70
2022-12-23T21:46:06.159Z,22.33
2022-12-23T21:48:35.185Z,22.70
2022-12-23T21:51:07.020Z,24.08
2022-12-23T21:53:36.126Z,18.40
2022-12-23T21:56:09.500Z,12.80
2022-12-23T21:58:37.080Z,14.93
2022-12-23T22:01:08.362Z,21.15
2022-12-23T22:03:35.457Z,15.68
2022-12-23T22:06:13.329Z,15.67
2022-12-23T22:08:40.174Z,18.70
2022-12-23T22:11:08.899Z,21.65
2022-12-23T22:13:36.003Z,18.23
2022-12-23T22:16:02.646Z,11.43
2022-12-23T22:18:31.480Z,19.57
2022-12-23T22:21:00.334Z,18.10
2022-12-23T22:23:26.753Z,23.33
2022-12-23T22:25:54.413Z,18.10
2022-12-23T22:28:23.257Z,21.98
2022-12-23T22:30:49.738Z,16.93
2022-12-23T22:33:16.241Z,22.75
2022-12-23T22:35:43.197Z,22.52
2022-12-23T22:38:09.951Z,19.17
2022-12-23T22:40:36.362Z,15.43
2022-12-23T22:43:03.044Z,21.57
2022-12-23T22:45:29.605Z,19.42
2022-12-23T22:47:56.198Z,15.10
2022-12-23T22:50:22.878Z,19.20
2022-12-23T22:52:49.350Z,17.90
2022-12-23T22:55:15.913Z,28.80
2022-12-23T22:57:42.321Z,20.80
2022-12-23T23:00:12.633Z,16.45
2022-12-23T23:02:39.512Z,17.92
2022-12-23T23:05:12.475Z,19.65
2022-12-23T23:07:39.938Z,15.70
2022-12-23T23:10:07.444Z,20.88
2022-12-23T23:12:33.959Z,18.70
2022-12-23T23:15:00.435Z,13.35
2022-12-23T23:17:28.696Z,20.05
2022-12-23T23:19:55.863Z,25.40
2022-12-23T23:22:24.910Z,18.08
2022-12-23T23:24:52.206Z,18.55
2022-12-23T23:27:19.026Z,24.88
2022-12-23T23:29:45.654Z,15.25
2022-12-23T23:32:12.342Z,17.03
2022-12-23T23:34:38.948Z,21.17
2022-12-23T23:37:05.406Z,18.98
2022-12-23T23:39:32.160Z,21.88
2022-12-23T23:41:58.983Z,20.98
2022-12-23T23:44:25.515Z,17.00
2022-12-23T23:46:52.079Z,24.83
2022-12-23T23:49:18.542Z,22.15
2022-12-23T23:51:45.092Z,22.55
2022-12-23T23:54:11.617Z,18.10
2022-12-23T23:56:39.510Z,23.40
2022-12-23T23:59:07.018Z,23.23
